Beatrice, NE

4:34 AM CST on December 10, 2019 (GMT -0600)
Beatrice Municipal

Weather History for KBIE - October, 2019

Change the Weather History Date:

Sunday, October 13, 2019

  Actual Average Record
Temperature  
Mean Temperature 46 °F -  
Max Temperature 63 °F 67 °F 92 °F (1975)
Min Temperature 30 °F 45 °F 24 °F (2006)
Degree Days  
Heating Degree Days 18    
Moisture  
Dew Point 30 °F    
Average Humidity 62    
Maximum Humidity 92    
Minimum Humidity 24    
Precipitation  
Precipitation 0.00 in - - ()
Sea Level Pressure  
Sea Level Pressure 29.96 in    
Wind  
Wind Speed 3 mph (WNW)    
Max Wind Speed 14 mph    
Max Gust Speed 18 mph    
Visibility 10 miles    
Events      
Averages and records for this station are not official NWS values.
T = Trace of Precipitation, MM = Missing Value Source: NWS Daily Summary

Daily Weather History Graph

Daily Weather History Graph

Search for Another Location

Airport or City:

Astronomy

Oct. 13, 2019 Rise Set
Actual Time 7:35 AM CDT 6:50 PM CDT
Civil Twilight 7:08 AM CDT 7:17 PM CDT
Nautical Twilight 6:36 AM CDT 7:49 PM CDT
Astronomical Twilight 6:05 AM CDT 8:20 PM CDT
Moon 7:13 PM CDT (10/13) 7:10 AM CDT (10/13)
Length of Visible Light 12h 09m
Length of Day
11h 14m
Full, 100% of the Moon is Illuminated
Oct 13
Full
Oct 13
Full
Oct 21
Last Quarter
Oct 27
New
Nov 4
First Quarter

Hourly Weather History & Observations

Time (CDT) Temp. Windchill Dew Point Humidity Pressure Visibility Wind Dir Wind Speed Gust Speed Precip Events Conditions
12:15 AM 36.9 °F - 31.8 °F 82% 29.91 in 10.0 mi Calm Calm - N/A   Clear
12:35 AM 35.4 °F 32.6 °F 31.1 °F 84% 29.91 in 10.0 mi West 3.5 mph - N/A   Clear
12:55 AM 36.7 °F - 29.7 °F 76% 29.91 in 10.0 mi Calm Calm - N/A   Clear
1:15 AM 35.1 °F - 30.0 °F 82% 29.91 in 10.0 mi Calm Calm - N/A   Clear
1:35 AM 33.3 °F - 29.3 °F 85% 29.91 in 10.0 mi Calm Calm - N/A   Clear
1:55 AM 34.0 °F - 32.0 °F 92% 29.91 in 10.0 mi Calm Calm - N/A   Clear
2:15 AM 34.2 °F 29.0 °F 31.1 °F 89% 29.92 in 10.0 mi WSW 5.8 mph - N/A   Clear
2:35 AM 32.9 °F - 30.0 °F 89% 29.92 in 10.0 mi Calm Calm - N/A   Clear
2:50 AM 34.2 °F - 29.7 °F 84% 29.93 in 10.0 mi Calm Calm - N/A   Clear
3:15 AM 32.4 °F - 29.5 °F 89% 29.92 in 10.0 mi Calm Calm - N/A   Clear
3:35 AM 32.0 °F 26.4 °F 29.3 °F 90% 29.91 in 10.0 mi North 5.8 mph - N/A   Clear
3:55 AM 31.3 °F - 27.7 °F 87% 29.92 in 10.0 mi Calm Calm - N/A   Clear
4:15 AM 31.1 °F 26.4 °F 27.5 °F 87% 29.93 in 10.0 mi SW 4.6 mph - N/A   Clear
4:35 AM 32.0 °F - 28.4 °F 87% 29.94 in 10.0 mi Calm Calm - N/A   Clear
4:55 AM 33.3 °F - 28.6 °F 83% 29.94 in 10.0 mi Calm Calm - N/A   Clear
5:15 AM 32.7 °F - 28.4 °F 84% 29.95 in 10.0 mi Calm Calm - N/A   Clear
5:35 AM 31.6 °F - 28.0 °F 87% 29.95 in 10.0 mi Calm Calm - N/A   Clear
5:55 AM 32.0 °F - 27.5 °F 83% 29.95 in 10.0 mi Calm Calm - N/A   Clear
6:15 AM 32.0 °F - 27.5 °F 83% 29.95 in 10.0 mi Calm Calm - N/A   Clear
6:35 AM 31.5 °F - 27.7 °F 86% 29.96 in 10.0 mi Calm Calm - N/A   Clear
6:55 AM 31.1 °F - 27.3 °F 86% 29.96 in 10.0 mi Calm Calm - N/A   Clear
7:15 AM 30.7 °F - 27.3 °F 87% 29.95 in 10.0 mi Calm Calm - N/A   Clear
7:55 AM 30.7 °F - 27.0 °F 86% 29.96 in 10.0 mi Calm Calm - N/A   Clear
8:15 AM 31.1 °F - 28.4 °F 90% 29.96 in 10.0 mi Calm Calm - N/A   Clear
8:35 AM 33.1 °F - 29.7 °F 87% 29.96 in 10.0 mi Calm Calm - N/A   Clear
8:55 AM 35.2 °F - 30.6 °F 83% 29.97 in 10.0 mi Calm Calm - N/A   Clear
9:15 AM 38.5 °F 36.1 °F 31.8 °F 77% 29.98 in 10.0 mi West 3.5 mph - N/A   Clear
9:35 AM 41.5 °F 37.1 °F 32.7 °F 71% 29.99 in 10.0 mi WNW 6.9 mph - N/A   Clear
9:55 AM 44.1 °F 40.1 °F 31.1 °F 60% 29.99 in 10.0 mi WNW 6.9 mph - N/A   Clear
10:15 AM 46.6 °F - 32.0 °F 57% 30.00 in 10.0 mi NW 8.1 mph - N/A   Clear
10:35 AM 48.2 °F - 31.5 °F 52% 30.00 in 10.0 mi NNW 6.9 mph - N/A   Clear
10:55 AM 50.4 °F - 31.3 °F 48% 30.00 in 10.0 mi WNW 9.2 mph - N/A   Clear
11:15 AM 52.7 °F - 30.0 °F 42% 30.00 in 10.0 mi NW 9.2 mph - N/A   Clear
11:35 AM 53.4 °F - 29.1 °F 39% 30.00 in 10.0 mi WNW 9.2 mph - N/A   Clear
11:55 AM 55.0 °F - 26.8 °F 34% 30.00 in 10.0 mi WNW 12.7 mph - N/A   Clear
12:15 PM 55.9 °F - 27.7 °F 34% 30.00 in 10.0 mi WNW 6.9 mph - N/A   Clear
12:35 PM 57.2 °F - 28.0 °F 33% 29.99 in 10.0 mi West 11.5 mph - N/A   Clear
12:55 PM 57.7 °F - 28.2 °F 32% 29.99 in 10.0 mi NW 11.5 mph - N/A   Clear
1:15 PM 59.0 °F - 28.4 °F 31% 29.98 in 10.0 mi WNW 13.8 mph 18.4 mph N/A   Clear
1:35 PM 59.2 °F - 27.9 °F 30% 29.97 in 10.0 mi West 8.1 mph 17.3 mph N/A   Clear
1:55 PM 59.7 °F - 27.7 °F 30% 29.97 in 10.0 mi WNW 12.7 mph 17.3 mph N/A   Clear
2:15 PM 61.2 °F - 29.1 °F 30% 29.96 in 10.0 mi WNW 9.2 mph 18.4 mph N/A   Clear
2:35 PM 61.2 °F - 26.8 °F 27% 29.95 in 10.0 mi WNW 8.1 mph 17.3 mph N/A   Clear
2:55 PM 61.7 °F - 27.3 °F 27% 29.95 in 10.0 mi West 10.4 mph - N/A   Clear
3:15 PM 62.6 °F - 26.6 °F 26% 29.94 in 10.0 mi West 8.1 mph - N/A   Clear
3:35 PM 62.6 °F - 26.4 °F 25% 29.94 in 10.0 mi WNW 10.4 mph - N/A   Clear
3:55 PM 63.1 °F - 26.8 °F 25% 29.94 in 10.0 mi West 9.2 mph - N/A   Clear
4:15 PM 63.1 °F - 25.7 °F 24% 29.94 in 10.0 mi WNW 10.4 mph - N/A   Clear
4:35 PM 63.5 °F - 26.2 °F 24% 29.94 in 10.0 mi West 8.1 mph - N/A   Clear
4:55 PM 63.5 °F - 26.1 °F 24% 29.95 in 10.0 mi WNW 10.4 mph - N/A   Clear
5:15 PM 63.0 °F - 25.9 °F 24% 29.95 in 10.0 mi West 9.2 mph - N/A   Clear
5:35 PM 62.6 °F - 25.7 °F 25% 29.95 in 10.0 mi West 9.2 mph - N/A   Clear
5:55 PM 61.7 °F - 26.6 °F 26% 29.95 in 10.0 mi West 6.9 mph - N/A   Clear
6:15 PM 59.9 °F - 27.9 °F 30% 29.95 in 10.0 mi West 5.8 mph - N/A   Clear
6:35 PM 57.2 °F - 28.4 °F 33% 29.95 in 10.0 mi West 4.6 mph - N/A   Clear
6:55 PM 55.0 °F - 29.3 °F 37% 29.96 in 10.0 mi WNW 3.5 mph - N/A   Clear
7:15 PM 48.2 °F - 32.4 °F 54% 29.97 in 10.0 mi Calm Calm - N/A   Clear
7:35 PM 49.5 °F - 31.3 °F 50% 29.98 in 10.0 mi Calm Calm - N/A   Clear
7:55 PM 46.8 °F - 32.0 °F 57% 29.98 in 10.0 mi Calm Calm - N/A   Clear
8:15 PM 46.6 °F - 32.0 °F 57% 29.98 in 10.0 mi Calm Calm - N/A   Clear
8:35 PM 45.0 °F - 33.3 °F 64% 29.98 in 10.0 mi Calm Calm - N/A   Clear
8:55 PM 40.6 °F - 32.2 °F 72% 29.98 in 10.0 mi Calm Calm - N/A   Clear
9:15 PM 42.4 °F - 32.9 °F 69% 29.99 in 10.0 mi Calm Calm - N/A   Clear
9:35 PM 40.3 °F - 33.1 °F 75% 29.99 in 10.0 mi Calm Calm - N/A   Clear
9:55 PM 42.3 °F - 33.8 °F 72% 29.99 in 4.0 mi Calm Calm - N/A   Haze
10:15 PM 40.6 °F - 34.7 °F 79% 30.00 in 10.0 mi Calm Calm - N/A   Clear
10:35 PM 39.4 °F - 33.6 °F 80% 30.00 in 10.0 mi Calm Calm - N/A   Clear
10:55 PM 37.6 °F - 33.8 °F 86% 30.00 in 7.0 mi Calm Calm - N/A   Clear
11:15 PM 36.3 °F - 32.0 °F 84% 30.00 in 7.0 mi Calm Calm - N/A   Clear
11:35 PM 37.6 °F - 32.5 °F 82% 30.00 in 10.0 mi Calm Calm - N/A   Clear
11:55 PM 37.4 °F - 33.3 °F 85% 30.00 in 10.0 mi Calm Calm - N/A   Clear